Time;durP1;ratioP1;P1;durP2;ratioP2;P2;SDS_P1;SDS_P2;PMS_P1;PMS_P2;Temp;Humidity;BMP_temperature;BMP_pressure;BME280_temperature;BME280_humidity;BME280_pressure;Samples;Min_cycle;Max_cycle;Signal;HPM_P1;HPM_P2
2022/10/22 00:00:16;;;;;;;8.13;6.40;;;13.80;99.90;;;14.19;90.27;97633.16;5127396;28;20493;-86
2022/10/22 00:02:43;;;;;;;6.00;5.40;;;13.80;99.90;;;14.22;90.09;97638.06;5133090;27;20513;-87
2022/10/22 00:05:11;;;;;;;6.37;5.40;;;13.90;99.90;;;14.14;90.44;97623.81;5133789;28;20485;-87
2022/10/22 00:07:39;;;;;;;6.60;5.50;;;13.80;99.90;;;14.25;89.82;97637.56;5134459;27;20473;-90
2022/10/22 00:10:09;;;;;;;9.17;6.07;;;13.90;99.90;;;14.29;89.83;97636.84;5144578;27;20945;-88
2022/10/22 00:12:38;;;;;;;9.30;5.80;;;13.90;99.90;;;14.28;90.21;97640.63;5144946;28;20460;-88
2022/10/22 00:15:07;;;;;;;7.23;6.00;;;13.90;99.90;;;14.37;89.78;97635.59;5135686;28;20442;-86
2022/10/22 00:17:34;;;;;;;8.27;5.50;;;13.90;99.90;;;14.48;89.38;97638.44;5159167;27;20483;-86
2022/10/22 00:20:02;;;;;;;6.80;6.10;;;14.00;99.90;;;14.06;89.80;97599.81;5129486;28;20528;-86
2022/10/22 00:22:29;;;;;;;8.60;5.87;;;13.90;99.90;;;14.37;89.94;97643.75;5128073;27;20457;-84
2022/10/22 00:24:57;;;;;;;7.27;5.77;;;13.90;99.90;;;13.85;89.92;97561.47;5123976;28;20447;-86
2022/10/22 00:27:24;;;;;;;9.30;5.83;;;14.00;99.90;;;14.36;90.39;97641.25;5127100;27;20481;-89
2022/10/22 00:29:53;;;;;;;9.27;6.30;;;13.90;99.90;;;14.31;90.56;97640.13;5126207;28;20459;-84
2022/10/22 00:32:20;;;;;;;10.03;6.83;;;13.90;99.90;;;14.25;90.89;97643.81;5124924;27;20441;-86
2022/10/22 00:34:47;;;;;;;8.57;6.90;;;13.90;99.90;;;14.22;91.25;97648.94;5123445;27;20459;-84
2022/10/22 00:37:14;;;;;;;6.80;6.13;;;13.90;99.90;;;14.23;91.13;97656.84;5134033;27;20461;-86
2022/10/22 00:39:42;;;;;;;7.00;6.17;;;13.90;99.90;;;14.33;91.03;97655.34;5124470;27;20468;-87
2022/10/22 00:42:22;;;;;;;6.53;5.87;;;14.00;99.90;;;14.40;90.47;97651.38;5147096;27;20840;-86
2022/10/22 00:45:15;;;;;;;7.43;6.70;;;14.10;99.90;;;14.29;90.94;97665.88;5128105;27;20454;-84
2022/10/22 00:47:46;;;;;;;10.03;7.23;;;14.00;99.90;;;14.17;91.00;97627.94;5120877;27;20903;-83
2022/10/22 00:50:18;;;;;;;7.43;6.73;;;14.00;99.90;;;14.34;91.45;97652.41;5127116;27;20460;-82
2022/10/22 00:52:45;;;;;;;12.07;7.23;;;14.00;99.90;;;14.46;91.38;97657.72;5124924;27;20513;-82
2022/10/22 00:55:14;;;;;;;10.10;7.10;;;14.00;99.90;;;14.42;91.57;97660.13;5135990;27;20457;-85
2022/10/22 00:57:44;;;;;;;10.80;7.60;;;14.00;99.90;;;14.49;91.43;97662.66;5106689;27;20453;-85
2022/10/22 01:00:14;;;;;;;7.60;6.80;;;14.00;99.90;;;14.43;91.33;97674.53;5127762;27;20489;-84
2022/10/22 01:02:42;;;;;;;10.70;7.30;;;14.00;99.90;;;14.43;92.01;97669.91;5126822;27;20450;-85
2022/10/22 01:05:10;;;;;;;7.90;7.10;;;14.10;99.90;;;14.26;93.06;97666.38;5144610;27;20472;-84
2022/10/22 01:07:43;;;;;;;7.60;6.90;;;14.00;99.90;;;13.66;92.74;97562.78;5127886;27;20867;-84
2022/10/22 01:10:32;;;;;;;7.90;6.67;;;13.90;99.90;;;14.08;93.24;97619.41;5121459;27;20458;-85
2022/10/22 01:13:17;;;;;;;10.83;6.83;;;13.90;99.90;;;13.97;93.18;97613.00;5134495;27;20508;-83
2022/10/22 01:15:58;;;;;;;7.60;6.73;;;13.90;99.90;;;14.33;93.17;97658.91;5136915;27;20979;-84
2022/10/22 01:18:37;;;;;;;9.10;8.17;;;13.90;99.90;;;13.88;93.30;97587.31;5120576;27;20462;-86
2022/10/22 01:21:25;;;;;;;9.33;8.20;;;13.90;99.90;;;14.14;93.66;97631.16;5123856;27;20868;-86
2022/10/22 01:24:34;;;;;;;9.60;7.60;;;13.80;99.90;;;14.20;94.13;97651.09;5136358;27;20447;-86
2022/10/22 01:27:15;;;;;;;7.83;7.03;;;13.90;99.90;;;14.10;94.05;97638.97;5130754;27;21003;-87
2022/10/22 01:29:48;;;;;;;13.57;7.30;;;13.90;99.90;;;14.08;94.20;97641.13;5121436;27;21028;-87
2022/10/22 01:32:19;;;;;;;11.27;7.97;;;13.90;99.90;;;14.21;93.79;97648.09;5126271;27;20926;-86
2022/10/22 01:34:52;;;;;;;7.70;6.17;;;13.90;99.90;;;14.29;93.13;97649.59;5133733;27;20454;-86
2022/10/22 01:37:24;;;;;;;5.43;4.93;;;13.90;99.90;;;14.23;92.05;97637.00;5129817;27;20469;-86
2022/10/22 01:39:52;;;;;;;6.63;4.87;;;13.90;99.90;;;14.01;92.60;97607.88;5148766;27;20532;-86
2022/10/22 01:42:20;;;;;;;6.23;4.70;;;13.80;99.90;;;14.32;91.40;97627.34;5146458;27;20456;-86
2022/10/22 01:44:50;;;;;;;5.67;5.17;;;13.90;99.90;;;14.10;91.27;97622.69;5136015;27;20469;-85
2022/10/22 01:47:31;;;;;;;6.60;4.50;;;13.80;99.90;;;14.24;91.07;97622.34;5132238;27;20478;-83
2022/10/22 01:50:28;;;;;;;5.23;4.03;;;13.80;99.90;;;14.20;90.54;97615.78;5135419;27;21068;-83
2022/10/22 01:53:19;;;;;;;6.13;3.60;;;13.80;99.90;;;14.03;90.23;97605.75;5133784;27;20457;-83
2022/10/22 01:55:58;;;;;;;4.83;3.33;;;13.80;99.90;;;14.01;89.47;97592.41;5119527;27;20462;-85
2022/10/22 01:58:38;;;;;;;4.93;3.03;;;13.80;99.90;;;14.12;88.68;97611.59;5136748;27;20445;-85
2022/10/22 02:01:17;;;;;;;3.43;2.77;;;13.70;99.90;;;13.92;88.69;97582.22;5135574;27;20491;-84
2022/10/22 02:03:56;;;;;;;3.13;2.30;;;13.80;99.90;;;14.07;88.27;97598.75;5136680;27;20448;-82
2022/10/22 02:06:25;;;;;;;4.03;2.23;;;13.80;99.90;;;14.00;88.23;97596.19;5135404;27;20451;-83
2022/10/22 02:08:54;;;;;;;2.33;1.90;;;13.80;99.90;;;13.95;88.94;97598.84;5135086;27;20481;-83
2022/10/22 02:11:21;;;;;;;2.33;2.03;;;13.70;99.90;;;13.84;88.69;97597.84;5134602;27;20457;-83
2022/10/22 02:13:53;;;;;;;2.83;2.00;;;13.70;99.90;;;13.79;88.79;97600.47;5134605;27;20445;-83
2022/10/22 02:16:28;;;;;;;2.20;1.70;;;13.60;99.90;;;13.83;87.79;97593.47;5127831;27;20508;-84
2022/10/22 02:18:58;;;;;;;1.87;1.57;;;13.60;99.90;;;13.83;87.88;97590.75;5134474;27;20449;-85
2022/10/22 02:21:27;;;;;;;4.80;1.57;;;13.60;99.90;;;13.81;87.66;97598.34;5128612;27;20461;-84
2022/10/22 02:23:54;;;;;;;2.70;1.83;;;13.60;99.90;;;13.81;87.07;97598.34;5142967;27;20449;-83
2022/10/22 02:26:31;;;;;;;2.20;1.90;;;13.50;99.90;;;13.79;87.79;97599.63;5134583;27;20998;-83
2022/10/22 02:29:06;;;;;;;1.90;1.47;;;13.60;99.90;;;13.77;87.55;97615.34;5131592;27;20967;-83
2022/10/22 02:31:39;;;;;;;3.13;1.67;;;13.50;99.90;;;13.73;87.40;97623.19;5140468;27;20484;-85
2022/10/22 02:34:12;;;;;;;2.63;1.70;;;13.50;99.90;;;13.78;87.64;97620.56;5129103;27;21013;-81
2022/10/22 02:36:42;;;;;;;1.70;1.37;;;13.40;99.90;;;13.81;87.92;97630.91;5129876;27;20549;-83
2022/10/22 02:39:11;;;;;;;2.00;1.63;;;13.50;99.90;;;13.21;87.76;97540.84;5127192;27;20442;-83
2022/10/22 02:41:40;;;;;;;2.20;1.50;;;13.40;99.90;;;13.55;88.34;97637.81;5141423;27;20459;-85
2022/10/22 02:44:10;;;;;;;1.60;1.50;;;13.30;99.90;;;13.48;88.21;97615.41;5132577;27;20523;-87
2022/10/22 02:46:40;;;;;;;2.23;1.40;;;13.20;99.90;;;13.65;88.80;97626.28;5138930;27;20795;-86
2022/10/22 02:49:08;;;;;;;2.63;2.17;;;13.30;99.90;;;13.68;89.64;97636.66;5127208;27;20460;-87
2022/10/22 02:51:36;;;;;;;1.67;1.50;;;13.30;99.90;;;13.63;89.34;97629.25;5149154;27;20452;-87
2022/10/22 02:54:03;;;;;;;2.90;1.70;;;13.30;99.90;;;13.54;89.69;97630.72;5139163;27;20441;-85
2022/10/22 02:56:31;;;;;;;4.03;2.20;;;13.30;99.90;;;13.72;89.41;97637.81;5122647;27;20462;-85
2022/10/22 02:58:58;;;;;;;2.50;2.20;;;13.40;99.90;;;13.71;89.39;97628.84;5131172;27;20460;-84
2022/10/22 03:01:27;;;;;;;3.87;2.20;;;13.40;99.90;;;13.44;89.84;97583.34;5126550;27;20587;-84
2022/10/22 03:03:57;;;;;;;3.33;2.97;;;13.40;99.90;;;13.21;90.05;97559.84;5120026;27;20457;-86
2022/10/22 03:06:24;;;;;;;4.70;2.53;;;13.30;99.90;;;13.63;90.83;97633.88;5129485;27;20464;-85
2022/10/22 03:08:51;;;;;;;5.23;2.13;;;13.30;99.90;;;13.40;90.33;97587.59;5127416;27;20980;-87
2022/10/22 03:11:19;;;;;;;3.03;2.40;;;13.40;99.90;;;13.58;91.71;97621.84;5136320;27;20717;-86
2022/10/22 03:13:46;;;;;;;2.83;2.63;;;13.30;99.90;;;13.24;91.35;97551.22;5133622;27;20458;-86
2022/10/22 03:16:13;;;;;;;4.00;2.30;;;13.30;99.90;;;13.58;91.62;97630.00;5148950;27;20439;-88
2022/10/22 03:18:40;;;;;;;2.67;2.33;;;13.30;99.90;;;13.57;91.66;97641.94;5146635;27;20463;-86
2022/10/22 03:21:21;;;;;;;4.30;2.73;;;13.20;99.90;;;13.67;91.19;97625.00;5161637;27;20483;-87
2022/10/22 03:23:49;;;;;;;3.40;3.10;;;13.30;99.90;;;13.65;91.24;97610.84;5152056;27;20537;-86
2022/10/22 03:26:17;;;;;;;3.53;3.00;;;13.40;99.90;;;13.25;93.47;97607.09;5144637;27;20449;-88
2022/10/22 03:28:47;;;;;;;2.97;2.77;;;13.30;99.90;;;13.20;93.58;97598.88;5159944;27;20452;-86
2022/10/22 03:31:18;;;;;;;5.10;3.87;;;13.20;99.90;;;13.42;93.74;97628.03;5162906;27;20478;-86
2022/10/22 03:33:45;;;;;;;12.30;4.13;;;13.20;99.90;;;13.49;93.48;97623.31;5145373;27;20478;-85
2022/10/22 03:36:14;;;;;;;3.60;3.00;;;13.10;99.90;;;13.56;93.54;97640.25;5139780;27;20832;-84
2022/10/22 03:38:42;;;;;;;4.13;3.60;;;13.20;99.90;;;13.62;93.43;97643.88;5160510;27;20785;-86
2022/10/22 03:41:09;;;;;;;5.13;3.23;;;13.20;99.90;;;13.55;93.42;97632.38;5158789;27;20442;-85
2022/10/22 03:43:41;;;;;;;3.80;3.50;;;13.30;99.90;;;13.60;93.31;97652.28;5153999;27;20461;-84
2022/10/22 03:46:08;;;;;;;3.50;3.20;;;13.30;99.90;;;13.56;93.13;97677.44;5133920;27;20469;-87
2022/10/22 03:48:35;;;;;;;3.50;3.20;;;13.30;99.90;;;13.57;92.49;97673.66;5130748;27;20540;-85
2022/10/22 03:51:04;;;;;;;4.70;2.77;;;13.30;99.90;;;13.41;91.88;97672.50;5130229;27;20445;-86
2022/10/22 03:53:32;;;;;;;3.77;2.70;;;13.30;99.90;;;13.55;91.42;97695.59;5121499;27;21030;-85
2022/10/22 03:55:59;;;;;;;4.27;2.67;;;13.30;99.90;;;13.71;90.71;97693.16;5131093;27;20858;-85
2022/10/22 03:58:27;;;;;;;3.37;2.93;;;13.30;99.90;;;13.80;90.06;97696.31;5142375;27;20449;-86
2022/10/22 04:00:54;;;;;;;3.07;2.77;;;13.40;99.90;;;13.52;90.27;97654.56;5129289;27;20968;-86
2022/10/22 04:03:21;;;;;;;2.60;2.40;;;13.40;99.90;;;13.60;90.43;97667.75;5112708;28;20458;-85
2022/10/22 04:05:49;;;;;;;3.93;2.77;;;13.40;99.90;;;13.79;89.82;97694.66;5124269;28;20464;-84
2022/10/22 04:08:16;;;;;;;2.93;2.53;;;13.40;99.90;;;13.81;89.37;97696.06;5136068;27;20467;-84
2022/10/22 04:10:51;;;;;;;3.30;2.40;;;13.50;99.90;;;13.58;89.61;97706.00;5131076;27;20894;-84
2022/10/22 04:13:19;;;;;;;6.43;2.50;;;13.30;99.90;;;13.77;89.07;97715.81;5127388;27;21114;-84
2022/10/22 04:15:46;;;;;;;2.50;2.20;;;13.30;99.90;;;13.34;89.82;97712.53;5125276;27;20506;-83
2022/10/22 04:18:13;;;;;;;3.80;1.90;;;13.30;99.90;;;13.69;89.00;97736.03;5127392;27;20453;-86
2022/10/22 04:20:41;;;;;;;2.10;1.93;;;13.40;99.90;;;13.75;88.09;97735.06;5128863;27;20437;-86
2022/10/22 04:23:09;;;;;;;2.53;2.33;;;13.40;99.90;;;13.59;87.73;97699.50;5152863;27;20443;-86
2022/10/22 04:25:36;;;;;;;2.53;2.10;;;13.40;99.90;;;13.22;87.76;97640.16;5136621;27;20461;-85
2022/10/22 04:28:07;;;;;;;2.73;2.20;;;13.50;99.90;;;13.82;87.33;97718.63;5145142;27;20465;-85
2022/10/22 04:30:34;;;;;;;2.73;2.17;;;13.50;99.90;;;13.86;87.53;97726.03;5133776;27;20564;-87
2022/10/22 04:33:02;;;;;;;2.87;2.30;;;13.40;99.90;;;13.25;88.30;97653.22;5141318;27;20536;-83
2022/10/22 04:35:30;;;;;;;2.57;2.30;;;13.40;99.90;;;13.45;88.73;97722.56;5137683;27;20467;-82
2022/10/22 04:37:57;;;;;;;3.83;2.30;;;13.30;99.90;;;13.76;88.51;97731.28;5140043;27;20742;-85
2022/10/22 04:40:25;;;;;;;2.63;2.10;;;13.30;99.90;;;13.83;88.08;97742.81;5124662;27;20476;-84
2022/10/22 04:42:52;;;;;;;3.10;2.43;;;13.40;99.90;;;13.76;88.29;97744.03;5149982;27;20456;-86
2022/10/22 04:45:21;;;;;;;2.87;2.50;;;13.40;99.90;;;13.62;88.68;97735.38;5116311;27;20459;-87
2022/10/22 04:47:48;;;;;;;3.20;2.87;;;13.30;99.90;;;13.80;88.67;97748.72;5132128;27;21003;-86
2022/10/22 04:50:16;;;;;;;2.57;2.37;;;13.30;99.90;;;13.31;87.81;97671.25;5135679;27;20450;-86
2022/10/22 04:52:43;;;;;;;2.87;2.10;;;13.40;99.90;;;13.82;88.08;97756.66;5141708;27;20472;-85
2022/10/22 04:55:10;;;;;;;2.53;1.90;;;13.40;99.90;;;13.83;87.41;97759.09;5157295;27;20463;-86
2022/10/22 04:57:37;;;;;;;2.23;2.10;;;13.40;99.90;;;13.47;87.47;97723.16;5146279;27;20460;-85
2022/10/22 05:00:06;;;;;;;3.00;2.20;;;13.40;99.90;;;13.80;88.01;97773.16;5149802;27;20452;-86
2022/10/22 05:02:35;;;;;;;2.53;2.30;;;13.40;99.90;;;13.82;88.64;97757.47;5147450;27;20452;-87
2022/10/22 05:05:03;;;;;;;2.57;1.77;;;13.40;99.90;;;13.68;88.75;97756.09;5162022;27;20571;-85
2022/10/22 05:07:30;;;;;;;3.20;1.80;;;13.40;99.90;;;13.59;88.70;97736.66;5150691;27;20441;-86
2022/10/22 05:09:58;;;;;;;4.07;2.00;;;13.30;99.90;;;13.63;88.65;97751.38;5150368;27;20475;-83
2022/10/22 05:12:25;;;;;;;2.53;2.33;;;13.20;99.90;;;13.69;88.89;97753.16;5142682;27;20442;-84
2022/10/22 05:14:52;;;;;;;4.07;2.30;;;13.20;99.90;;;13.80;88.50;97746.03;5161654;27;20432;-86
2022/10/22 05:17:20;;;;;;;2.60;2.07;;;13.30;99.90;;;13.40;88.43;97689.84;5142319;27;20501;-85
2022/10/22 05:19:48;;;;;;;2.20;2.00;;;13.30;99.90;;;13.58;88.69;97746.72;5144178;27;20456;-86
2022/10/22 05:22:15;;;;;;;2.33;2.10;;;13.20;99.90;;;13.48;88.74;97741.06;5158561;27;20460;-83
2022/10/22 05:24:43;;;;;;;4.67;3.00;;;13.10;99.90;;;13.58;88.91;97757.56;5125809;27;20876;-84
2022/10/22 05:27:10;;;;;;;2.33;2.13;;;13.10;99.90;;;13.53;89.01;97756.63;5125859;27;20514;-84
2022/10/22 05:29:37;;;;;;;2.83;2.30;;;13.10;99.90;;;13.52;89.26;97761.22;5129137;27;20519;-86
2022/10/22 05:32:05;;;;;;;3.37;2.90;;;13.00;99.90;;;13.28;89.02;97720.59;5128566;27;20447;-84
2022/10/22 05:34:34;;;;;;;4.77;2.90;;;13.00;99.90;;;13.18;88.68;97707.59;5130829;27;20452;-83
2022/10/22 05:37:03;;;;;;;6.10;3.50;;;13.00;99.90;;;13.07;91.63;97778.16;5116696;27;20542;-82
2022/10/22 05:39:31;;;;;;;7.07;4.27;;;12.90;99.90;;;12.78;91.19;97740.09;5123176;27;20450;-83
2022/10/22 05:41:58;;;;;;;4.57;4.17;;;12.90;99.90;;;13.07;91.29;97770.88;5120567;27;21049;-84
2022/10/22 05:44:25;;;;;;;3.93;3.60;;;12.70;99.90;;;13.09;91.15;97770.59;5124992;27;20456;-84
2022/10/22 05:46:52;;;;;;;6.70;4.03;;;12.60;99.90;;;13.02;91.79;97777.00;5123573;27;20473;-82
2022/10/22 05:49:20;;;;;;;4.93;4.30;;;12.70;99.90;;;13.01;92.18;97780.78;5115962;27;20483;-71
2022/10/22 05:51:47;;;;;;;6.70;3.97;;;12.60;99.90;;;13.03;92.00;97794.91;5135972;27;20492;-73
2022/10/22 05:54:19;;;;;;;4.23;3.90;;;12.60;99.90;;;13.06;91.73;97792.78;5130731;27;20545;-72
2022/10/22 05:56:46;;;;;;;4.17;3.87;;;12.60;99.90;;;13.03;91.53;97784.06;5125475;27;20452;-73
2022/10/22 05:59:13;;;;;;;4.80;4.23;;;12.60;99.90;;;13.02;91.79;97793.25;5122341;27;20553;-75
2022/10/22 06:01:41;;;;;;;4.80;4.37;;;12.60;99.90;;;12.94;92.18;97790.09;5116317;27;20500;-74
2022/10/22 06:04:11;;;;;;;4.93;3.90;;;12.60;99.90;;;12.91;92.66;97796.78;5114225;27;20461;-73
2022/10/22 06:06:42;;;;;;;5.70;4.57;;;12.60;99.90;;;12.75;93.90;97787.50;5120049;27;20531;-74
2022/10/22 06:09:18;;;;;;;5.30;4.20;;;12.60;99.90;;;12.67;94.82;97787.84;5115454;27;20582;-72
2022/10/22 06:11:46;;;;;;;4.50;4.10;;;12.60;99.90;;;12.73;94.71;97804.00;5113557;27;20485;-72
2022/10/22 06:14:13;;;;;;;3.93;3.53;;;12.60;99.90;;;12.86;94.21;97816.47;5135518;27;20447;-74
2022/10/22 06:16:42;;;;;;;5.20;4.23;;;12.60;99.90;;;12.96;93.98;97826.72;5133415;27;20522;-73
2022/10/22 06:19:11;;;;;;;5.33;4.00;;;12.60;99.90;;;12.99;93.59;97829.00;5122545;27;20451;-72
2022/10/22 06:21:38;;;;;;;5.10;4.10;;;12.60;99.90;;;13.01;93.64;97835.00;5119712;27;20445;-74
2022/10/22 06:24:07;;;;;;;4.10;3.57;;;12.70;99.90;;;13.01;93.22;97824.16;5130272;27;20488;-72
2022/10/22 06:26:36;;;;;;;5.40;4.10;;;12.70;99.90;;;13.19;93.80;97849.50;5126758;27;20461;-73
2022/10/22 06:29:04;;;;;;;4.80;3.53;;;12.70;99.90;;;13.23;93.14;97858.81;5119817;27;20562;-73
2022/10/22 06:31:35;;;;;;;8.00;4.10;;;12.80;99.90;;;13.22;93.57;97876.16;5112328;27;20700;-74
2022/10/22 06:34:03;;;;;;;4.03;3.67;;;12.80;99.90;;;13.27;93.50;97873.56;5124876;27;20467;-75
2022/10/22 06:36:31;;;;;;;8.40;4.47;;;12.80;99.90;;;13.31;93.09;97863.88;5136025;27;20544;-75
2022/10/22 06:38:58;;;;;;;6.87;5.10;;;12.80;99.90;;;13.43;92.63;97877.47;5119079;27;20519;-73
2022/10/22 06:41:26;;;;;;;4.23;3.93;;;12.90;99.90;;;13.46;92.34;97871.56;5113107;27;20842;-74
2022/10/22 06:43:56;;;;;;;4.80;3.90;;;12.90;99.90;;;13.54;92.03;97878.50;5116392;27;21631;-74
2022/10/22 06:46:24;;;;;;;4.73;4.10;;;13.00;99.90;;;13.56;90.81;97872.88;5116329;27;20564;-73
2022/10/22 06:48:54;;;;;;;3.70;2.83;;;13.10;99.90;;;13.60;90.29;97885.72;5118169;27;20494;-79
2022/10/22 06:51:21;;;;;;;6.97;4.50;;;13.10;99.90;;;13.67;91.23;97885.59;5121491;27;20514;-74
2022/10/22 06:53:49;;;;;;;3.73;3.30;;;13.10;99.90;;;13.74;90.82;97886.28;5123490;27;20571;-73
2022/10/22 06:56:20;;;;;;;4.13;3.73;;;13.20;99.90;;;13.84;90.12;97882.94;5115794;27;20440;-74
2022/10/22 06:58:48;;;;;;;6.03;4.17;;;13.30;99.90;;;13.94;89.85;97885.03;5136937;27;20462;-75
2022/10/22 07:01:19;;;;;;;4.10;3.70;;;13.40;99.90;;;14.08;90.02;97884.75;5121177;27;20456;-71
2022/10/22 07:03:47;;;;;;;6.60;3.63;;;13.40;99.90;;;14.06;87.35;97879.59;5117248;27;20454;-73
2022/10/22 07:06:15;;;;;;;8.43;3.90;;;13.50;99.90;;;13.92;86.64;97898.03;5133795;27;20461;-74
2022/10/22 07:08:42;;;;;;;6.90;3.50;;;13.60;99.90;;;14.15;85.99;97902.56;5133855;27;20597;-73
2022/10/22 07:11:13;;;;;;;4.47;3.60;;;13.60;99.90;;;14.30;85.94;97910.22;5117096;27;20597;-74
2022/10/22 07:13:41;;;;;;;6.50;3.67;;;13.70;99.90;;;14.31;84.57;97892.00;5112639;27;20464;-72
2022/10/22 07:16:09;;;;;;;4.10;3.63;;;13.80;99.90;;;14.45;84.19;97915.09;5119202;27;20464;-73
2022/10/22 07:18:39;;;;;;;7.33;3.90;;;13.80;99.90;;;14.33;84.46;97922.50;5121734;27;20611;-73
2022/10/22 07:21:08;;;;;;;5.80;4.07;;;13.80;99.90;;;14.26;85.43;97925.34;5122753;27;20488;-72
2022/10/22 07:23:36;;;;;;;6.70;4.47;;;13.80;99.90;;;14.22;85.63;97924.16;5113687;27;20953;-73
2022/10/22 07:26:05;;;;;;;5.80;4.23;;;13.80;99.90;;;14.21;86.03;97927.16;5117892;27;20599;-74
2022/10/22 07:28:34;;;;;;;3.57;3.27;;;13.70;99.90;;;14.18;85.67;97928.44;5146704;27;20465;-72
2022/10/22 07:31:01;;;;;;;4.90;3.70;;;13.70;99.90;;;14.23;85.50;97923.09;5114668;27;20527;-73
2022/10/22 07:33:28;;;;;;;7.53;3.40;;;13.70;99.90;;;14.23;85.65;97931.25;5118548;27;20448;-73
2022/10/22 07:36:01;;;;;;;4.63;4.13;;;13.80;99.90;;;14.17;84.31;97927.59;5122123;27;20452;-74
2022/10/22 07:38:28;;;;;;;2.90;2.70;;;13.80;99.90;;;14.33;84.08;97940.69;5113267;27;20448;-70
2022/10/22 07:40:56;;;;;;;2.20;2.00;;;13.90;99.90;;;14.55;82.75;97940.84;5120110;27;20547;-76
2022/10/22 07:43:24;;;;;;;6.20;2.97;;;14.00;97.50;;;14.61;82.22;97931.69;5128089;27;20480;-73
2022/10/22 07:45:51;;;;;;;3.53;2.40;;;14.20;96.80;;;14.89;81.52;97935.47;5113570;27;20466;-77
2022/10/22 07:48:18;;;;;;;4.43;3.30;;;14.40;95.90;;;15.02;80.50;97937.06;5120488;27;20983;-75
2022/10/22 07:50:46;;;;;;;3.60;2.50;;;14.60;95.40;;;14.99;79.53;97941.09;5117464;27;20472;-75
2022/10/22 07:53:14;;;;;;;6.43;3.03;;;14.70;93.90;;;15.39;79.69;97946.63;5134445;27;20464;-80
2022/10/22 07:55:42;;;;;;;2.50;2.10;;;14.90;94.10;;;15.07;78.09;97944.47;5118234;27;20456;-78
2022/10/22 07:58:09;;;;;;;5.33;2.40;;;14.90;92.20;;;15.13;79.28;97948.94;5119694;27;20577;-79
2022/10/22 08:00:36;;;;;;;2.97;2.60;;;14.90;92.60;;;15.33;78.07;97953.06;5115096;27;20469;-78
2022/10/22 08:03:04;;;;;;;2.73;2.47;;;15.00;92.50;;;15.46;77.59;97952.72;5115480;27;21195;-79
2022/10/22 08:05:31;;;;;;;5.37;2.93;;;15.10;92.60;;;15.64;78.45;97965.25;5113913;27;20514;-79
2022/10/22 08:07:58;;;;;;;3.60;2.57;;;15.20;93.00;;;15.66;78.00;97965.00;5115442;28;20491;-80
2022/10/22 08:10:26;;;;;;;6.60;2.80;;;15.30;92.40;;;15.44;78.26;97960.31;5115481;27;20563;-79
2022/10/22 08:12:53;;;;;;;5.20;3.10;;;15.20;92.10;;;15.48;77.54;97966.91;5116435;28;20899;-80
2022/10/22 08:15:22;;;;;;;3.50;2.70;;;15.30;91.70;;;15.53;76.45;97975.16;5111964;28;20464;-78
2022/10/22 08:17:49;;;;;;;4.13;2.70;;;15.20;91.10;;;15.28;77.76;97979.13;5122321;28;20461;-80
2022/10/22 08:20:17;;;;;;;3.03;2.73;;;15.20;91.40;;;15.51;76.38;97988.19;5114933;28;20556;-81
2022/10/22 08:22:44;;;;;;;2.70;2.50;;;15.20;91.40;;;15.19;77.72;97991.50;5117021;27;20489;-79
2022/10/22 08:25:12;;;;;;;5.13;3.67;;;15.10;91.20;;;15.39;76.70;97987.44;5117905;27;21034;-79
2022/10/22 08:27:41;;;;;;;4.10;2.90;;;15.10;91.60;;;15.52;75.93;97984.38;5110391;27;20460;-78
2022/10/22 08:30:10;;;;;;;2.83;2.53;;;15.30;91.10;;;15.98;75.64;97969.81;5117858;27;20520;-80
2022/10/22 08:32:37;;;;;;;4.17;2.63;;;15.60;91.20;;;15.93;75.22;97981.50;5124412;27;20454;-73
2022/10/22 08:35:05;;;;;;;4.00;2.10;;;15.70;90.80;;;15.32;76.74;97981.34;5105832;27;21311;-73
2022/10/22 08:37:32;;;;;;;2.50;2.30;;;15.40;90.50;;;15.76;75.88;97994.28;5123041;27;20465;-72
2022/10/22 08:39:59;;;;;;;7.17;4.00;;;15.60;90.80;;;15.71;74.79;97982.22;5115999;28;20481;-73
2022/10/22 08:43:05;;;;;;;4.00;2.77;;;15.70;90.50;;;15.76;75.26;97984.22;5118549;28;20528;-75
2022/10/22 08:45:40;;;;;;;2.80;2.60;;;15.70;90.70;;;15.95;75.70;97992.13;5113481;27;20515;-73
2022/10/22 08:48:27;;;;;;;3.50;2.03;;;15.80;90.90;;;15.73;75.66;97982.00;5117422;27;21287;-72
2022/10/22 08:50:57;;;;;;;4.77;2.23;;;15.60;90.70;;;15.64;76.38;97986.19;5118147;28;21006;-73
2022/10/22 08:53:32;;;;;;;2.73;2.23;;;15.50;90.80;;;15.52;75.82;97995.28;5133329;27;20869;-71
2022/10/22 08:55:59;;;;;;;2.77;2.00;;;15.40;90.70;;;15.82;75.23;97991.38;5110174;27;20489;-71
2022/10/22 08:58:36;;;;;;;1.60;1.50;;;15.50;90.70;;;15.89;74.75;97979.50;5124883;27;20493;-72
2022/10/22 09:01:08;;;;;;;1.60;1.50;;;15.60;90.70;;;15.95;74.22;97992.13;5120303;27;20570;-74
2022/10/22 09:03:48;;;;;;;2.43;1.70;;;15.70;90.50;;;15.71;74.18;97967.81;5120320;27;20492;-72
2022/10/22 09:06:19;;;;;;;2.23;1.50;;;15.70;90.20;;;15.89;73.83;98001.28;5120504;27;20544;-84
2022/10/22 09:08:47;;;;;;;4.90;2.30;;;15.70;90.00;;;15.75;73.93;98004.34;5137475;27;20454;-72
2022/10/22 09:11:28;;;;;;;2.80;2.27;;;15.60;90.00;;;15.76;74.19;97999.72;5129663;27;21906;-74
2022/10/22 09:13:58;;;;;;;2.80;1.77;;;15.50;89.90;;;16.00;72.78;98005.84;5121406;27;20824;-72
2022/10/22 09:16:36;;;;;;;1.80;1.30;;;15.70;89.60;;;16.20;72.11;98004.47;5119892;27;21296;-69
2022/10/22 09:19:18;;;;;;;6.43;1.40;;;15.80;89.10;;;16.28;71.80;98006.72;5120540;27;20453;-71
2022/10/22 09:21:55;;;;;;;2.20;1.37;;;15.90;89.20;;;16.59;71.41;97996.19;5118785;27;20504;-77
2022/10/22 09:24:36;;;;;;;1.47;1.10;;;16.20;89.30;;;17.09;67.74;98001.66;5115696;27;20474;-74
2022/10/22 09:27:12;;;;;;;1.33;1.20;;;16.70;87.00;;;17.07;68.55;98001.09;5123236;27;20454;-71
2022/10/22 09:29:42;;;;;;;1.20;0.97;;;17.00;86.80;;;17.33;67.56;97996.69;5119218;27;20879;-70
2022/10/22 09:32:09;;;;;;;1.90;1.00;;;17.00;86.50;;;17.74;67.06;98004.38;5125460;27;20496;-73
2022/10/22 09:34:36;;;;;;;1.40;1.07;;;17.40;86.40;;;17.79;66.21;98007.13;5116643;27;20545;-71
2022/10/22 09:37:07;;;;;;;2.60;1.20;;;17.50;85.70;;;17.70;65.74;98009.53;5133784;27;20976;-73
2022/10/22 09:39:37;;;;;;;1.17;0.90;;;17.50;84.90;;;17.82;65.96;98013.97;5136111;27;20450;-73
2022/10/22 09:42:06;;;;;;;1.70;0.83;;;17.60;85.30;;;17.70;65.46;98009.53;5116132;27;20879;-73
2022/10/22 09:44:34;;;;;;;1.13;0.77;;;17.60;84.70;;;17.74;65.66;98004.38;5115481;27;20484;-71
2022/10/22 09:47:06;;;;;;;1.77;0.70;;;17.50;84.80;;;17.13;68.25;98011.78;5124133;27;20518;-70
2022/10/22 09:49:36;;;;;;;2.17;0.90;;;17.20;85.50;;;17.26;66.66;98024.19;5111910;27;20518;-75
2022/10/22 09:52:03;;;;;;;3.00;1.40;;;17.00;84.90;;;16.82;68.14;98013.38;5119688;27;20516;-72
2022/10/22 09:54:41;;;;;;;2.60;0.80;;;16.80;85.20;;;16.92;67.57;98021.66;5117158;27;20543;-73
2022/10/22 09:57:17;;;;;;;1.13;0.90;;;16.70;85.20;;;16.94;67.42;98018.66;5119018;27;20446;-75
2022/10/22 09:59:48;;;;;;;2.60;0.90;;;16.70;85.30;;;17.12;67.94;98020.25;5115951;27;20491;-75
2022/10/22 10:02:21;;;;;;;1.40;0.80;;;16.70;85.70;;;17.08;67.91;98017.19;5116876;27;20509;-77
2022/10/22 10:04:50;;;;;;;2.40;0.80;;;16.70;85.80;;;17.13;66.94;98010.97;5111025;27;20666;-72
2022/10/22 10:07:21;;;;;;;1.10;1.00;;;16.80;85.30;;;17.48;66.46;98006.09;5117244;27;20527;-71
2022/10/22 10:09:50;;;;;;;1.20;0.90;;;17.10;85.50;;;17.81;65.29;98010.41;5125142;27;20480;-72
2022/10/22 10:12:30;;;;;;;1.50;0.90;;;17.40;85.10;;;18.02;63.54;98012.47;5116434;27;20466;-71
2022/10/22 10:15:11;;;;;;;1.83;0.87;;;17.70;84.10;;;17.73;63.73;97990.97;5134469;27;20557;-73
2022/10/22 10:17:46;;;;;;;1.63;0.83;;;17.90;83.80;;;18.17;64.14;98028.16;5133012;27;20511;-73
2022/10/22 10:20:28;;;;;;;1.10;1.00;;;17.90;83.80;;;18.61;62.06;98027.00;5113943;27;20923;-72
2022/10/22 10:23:03;;;;;;;1.30;0.70;;;18.20;83.10;;;18.63;61.32;98033.00;5117317;27;20471;-74
2022/10/22 10:25:51;;;;;;;1.70;1.10;;;18.40;82.20;;;18.39;61.05;98025.28;5128899;27;20561;-71
2022/10/22 10:28:38;;;;;;;1.53;0.60;;;18.50;81.30;;;18.21;61.51;98030.13;5115103;27;20946;-72
2022/10/22 10:31:19;;;;;;;1.43;0.80;;;18.10;81.30;;;18.04;63.16;98019.34;5115088;27;20497;-71